Time;durP1;ratioP1;P1;durP2;ratioP2;P2;SDS_P1;SDS_P2;PMS_P1;PMS_P2;Temp;Humidity;BMP_temperature;BMP_pressure;BME280_temperature;BME280_humidity;BME280_pressure;Samples;Min_cycle;Max_cycle;Signal;HPM_P1;HPM_P2
2021/10/24 00:00:51;;;;;;;12.60;7.30;;;;;;;2.42;84.29;101686.53;86000;1320;98482;-63
2021/10/24 00:02:59;;;;;;;12.90;8.00;;;;;;;2.41;84.24;101693.58;85830;1319;87958;-65
2021/10/24 00:05:08;;;;;;;12.90;7.80;;;;;;;2.42;84.24;101690.62;85933;1320;95453;-61
2021/10/24 00:07:16;;;;;;;13.00;8.10;;;;;;;2.42;84.33;101691.89;85961;1317;79497;-63
2021/10/24 00:09:23;;;;;;;12.50;8.50;;;;;;;2.45;84.44;101696.11;85839;1314;84041;-62
2021/10/24 00:11:30;;;;;;;12.30;7.70;;;;;;;2.50;84.46;101701.45;85823;1314;98555;-63
2021/10/24 00:13:38;;;;;;;20.80;9.10;;;;;;;2.55;84.46;101699.84;85833;1317;88266;-64
2021/10/24 00:15:45;;;;;;;14.60;8.50;;;;;;;2.60;84.59;101706.60;85978;1317;95886;-63
2021/10/24 00:17:53;;;;;;;15.20;8.90;;;;;;;2.67;84.68;101710.02;85837;1317;78283;-63
2021/10/24 00:20:00;;;;;;;14.50;8.50;;;;;;;2.74;84.83;101707.05;85928;1320;82110;-63
2021/10/24 00:22:09;;;;;;;14.00;8.60;;;;;;;2.81;84.88;101709.23;85869;1317;98311;-63
2021/10/24 00:24:16;;;;;;;14.30;8.70;;;;;;;2.86;84.94;101706.34;85830;1314;88196;-62
2021/10/24 00:26:26;;;;;;;12.00;7.80;;;;;;;2.91;84.77;101701.23;85964;1314;96076;-62
2021/10/24 00:28:34;;;;;;;14.80;8.40;;;;;;;2.93;84.74;101712.84;85857;1314;78491;-62
2021/10/24 00:30:41;;;;;;;14.30;8.50;;;;;;;2.91;84.66;101713.48;85982;1317;79611;-62
2021/10/24 00:32:49;;;;;;;13.60;8.50;;;;;;;2.90;84.60;101713.73;85818;1315;96905;-62
2021/10/24 00:34:56;;;;;;;16.20;9.10;;;;;;;2.86;84.62;101718.49;85917;1312;88482;-62
2021/10/24 00:37:07;;;;;;;13.50;7.90;;;;;;;2.83;84.63;101724.23;85885;1317;94530;-62
2021/10/24 00:39:14;;;;;;;15.10;8.50;;;;;;;2.84;84.63;101723.45;85860;1314;80215;-62
2021/10/24 00:41:22;;;;;;;14.90;9.10;;;;;;;2.84;84.87;101721.09;85986;1314;81353;-62
2021/10/24 00:43:29;;;;;;;14.70;8.60;;;;;;;2.90;84.85;101717.83;85830;1319;99163;-62
2021/10/24 00:45:37;;;;;;;16.50;9.40;;;;;;;2.98;84.95;101719.23;85736;1316;88866;-62
2021/10/24 00:47:45;;;;;;;95.90;31.90;;;;;;;3.03;84.95;101723.86;85817;1314;94325;-62
2021/10/24 00:49:54;;;;;;;200.80;58.10;;;;;;;3.07;84.94;101728.21;85914;1314;81186;-64
2021/10/24 00:52:02;;;;;;;186.40;57.00;;;;;;;3.08;84.93;101728.68;85971;1317;81136;-62
2021/10/24 00:54:14;;;;;;;142.50;44.80;;;;;;;3.08;84.89;101730.63;85864;1316;98194;-62
2021/10/24 00:56:24;;;;;;;114.10;42.10;;;;;;;3.07;84.86;101726.98;85996;1319;88229;-62
2021/10/24 00:58:33;;;;;;;77.40;36.30;;;;;;;3.07;84.99;101731.39;85895;1314;94379;-62
2021/10/24 01:00:40;;;;;;;48.80;24.90;;;;;;;3.07;84.86;101736.73;85972;1316;78615;-62
2021/10/24 01:02:50;;;;;;;43.00;23.00;;;;;;;3.02;84.93;101729.08;85848;1313;83130;-62
2021/10/24 01:04:58;;;;;;;32.60;18.90;;;;;;;2.96;84.84;101731.63;85802;1314;98050;-62
2021/10/24 01:07:09;;;;;;;32.00;18.20;;;;;;;2.91;84.91;101730.16;85860;1319;88985;-62
2021/10/24 01:09:20;;;;;;;27.20;16.80;;;;;;;2.92;84.78;101731.90;85828;1313;94854;-64
2021/10/24 01:11:29;;;;;;;23.40;14.30;;;;;;;2.92;84.72;101738.33;85826;1320;80261;-62
2021/10/24 01:13:39;;;;;;;19.60;13.50;;;;;;;2.92;84.74;101737.97;85870;1319;82984;-63
2021/10/24 01:15:49;;;;;;;17.80;11.10;;;;;;;2.93;84.80;101742.33;85981;1317;98513;-63
2021/10/24 01:18:00;;;;;;;17.90;11.10;;;;;;;2.96;85.01;101738.23;85799;1314;88671;-62
2021/10/24 01:20:14;;;;;;;26.60;15.40;;;;;;;3.01;84.90;101740.39;85858;1317;94317;-63
2021/10/24 01:22:22;;;;;;;26.60;15.00;;;;;;;3.02;84.99;101741.17;85802;1317;77912;-62
2021/10/24 01:24:30;;;;;;;29.10;15.60;;;;;;;3.02;84.96;101739.26;85879;1320;80706;-63
2021/10/24 01:26:40;;;;;;;21.30;12.20;;;;;;;3.07;85.01;101735.48;85977;1317;98487;-63
2021/10/24 01:28:47;;;;;;;17.80;10.40;;;;;;;3.11;84.99;101736.28;85860;1316;86752;-63
2021/10/24 01:30:55;;;;;;;18.20;10.20;;;;;;;3.16;85.08;101735.20;85973;1313;93740;-62
2021/10/24 01:33:04;;;;;;;18.20;9.70;;;;;;;3.21;85.02;101733.45;85875;1319;80600;-63
2021/10/24 01:35:12;;;;;;;20.20;11.30;;;;;;;3.19;84.96;101741.73;85916;1317;82677;-62
2021/10/24 01:37:20;;;;;;;21.20;11.20;;;;;;;3.10;84.82;101747.38;85924;1320;97355;-62
2021/10/24 01:39:31;;;;;;;26.70;13.30;;;;;;;3.03;84.78;101753.23;85731;1317;88408;-62
2021/10/24 01:41:38;;;;;;;26.90;13.90;;;;;;;2.94;84.71;101754.57;85807;1321;93796;-63
2021/10/24 01:43:49;;;;;;;24.20;13.30;;;;;;;2.85;84.59;101756.41;85849;1313;80401;-63
2021/10/24 01:45:57;;;;;;;27.40;15.40;;;;;;;2.78;84.46;101753.58;85939;1314;81840;-63
2021/10/24 01:48:06;;;;;;;32.00;16.10;;;;;;;2.72;84.37;101750.75;85854;1317;99319;-64
2021/10/24 01:50:17;;;;;;;35.50;18.70;;;;;;;2.66;84.41;101752.46;85723;1316;88006;-64
2021/10/24 01:52:28;;;;;;;34.70;15.30;;;;;;;2.62;84.48;101757.35;85773;1317;93709;-62
2021/10/24 01:54:36;;;;;;;30.60;14.80;;;;;;;2.61;84.49;101760.40;85920;1317;79042;-63
2021/10/24 01:56:44;;;;;;;28.60;13.20;;;;;;;2.64;84.60;101761.66;86019;1314;82148;-64
2021/10/24 01:58:52;;;;;;;24.70;12.70;;;;;;;2.65;84.72;101757.66;85991;1313;96815;-64
2021/10/24 02:01:00;;;;;;;23.10;13.00;;;;;;;2.68;84.76;101755.33;85982;1319;88078;-62
2021/10/24 02:03:08;;;;;;;26.60;12.60;;;;;;;2.71;84.95;101757.61;85833;1314;94328;-62
2021/10/24 02:05:15;;;;;;;33.90;16.90;;;;;;;2.73;84.87;101755.35;85918;1314;79733;-62
2021/10/24 02:07:23;;;;;;;26.30;16.00;;;;;;;2.78;84.92;101756.41;85905;1317;82448;-62
2021/10/24 02:09:30;;;;;;;20.70;11.40;;;;;;;2.82;84.89;101758.29;85814;1313;98255;-62
2021/10/24 02:11:38;;;;;;;19.50;12.10;;;;;;;2.87;84.95;101765.34;85840;1313;88449;-64
2021/10/24 02:13:45;;;;;;;20.30;12.00;;;;;;;2.92;85.06;101768.55;85856;1313;93990;-62
2021/10/24 02:15:55;;;;;;;21.40;12.40;;;;;;;2.96;85.27;101770.23;85809;1314;79853;-63
2021/10/24 02:18:03;;;;;;;20.30;10.80;;;;;;;2.98;85.21;101774.75;85871;1314;81793;-63
2021/10/24 02:20:15;;;;;;;18.20;11.30;;;;;;;3.02;85.12;101777.33;85768;1314;98197;-63
2021/10/24 02:22:25;;;;;;;20.20;11.90;;;;;;;3.06;85.16;101777.04;85826;1319;88332;-62
2021/10/24 02:24:33;;;;;;;17.80;11.70;;;;;;;3.15;85.21;101782.81;85879;1314;93777;-64
2021/10/24 02:26:40;;;;;;;18.00;11.20;;;;;;;3.22;85.30;101773.56;86003;1313;80205;-63
2021/10/24 02:28:48;;;;;;;20.20;10.80;;;;;;;3.26;85.30;101767.80;85893;1314;81706;-63
2021/10/24 02:30:58;;;;;;;15.80;10.90;;;;;;;3.24;85.15;101767.75;85956;1318;99191;-65
2021/10/24 02:33:06;;;;;;;16.80;11.00;;;;;;;3.24;85.17;101770.96;85738;1321;85827;-63
2021/10/24 02:35:15;;;;;;;18.50;10.80;;;;;;;3.25;85.15;101769.80;85930;1317;96263;-63
2021/10/24 02:37:22;;;;;;;19.70;11.80;;;;;;;3.25;85.22;101770.49;85883;1314;80138;-62
2021/10/24 02:39:30;;;;;;;20.00;11.20;;;;;;;3.30;85.25;101774.10;85852;1313;81860;-63
2021/10/24 02:41:40;;;;;;;17.90;11.10;;;;;;;3.32;85.12;101774.30;85830;1313;97207;-63
2021/10/24 02:43:48;;;;;;;20.20;11.80;;;;;;;3.34;85.18;101776.47;85813;1319;87715;-63
2021/10/24 02:45:55;;;;;;;18.70;11.60;;;;;;;3.36;85.02;101773.23;85759;1317;94516;-64
2021/10/24 02:48:03;;;;;;;17.90;10.20;;;;;;;3.38;85.14;101781.47;85840;1317;78102;-62
2021/10/24 02:50:12;;;;;;;15.80;10.30;;;;;;;3.40;85.11;101782.61;85834;1314;82440;-62
2021/10/24 02:52:19;;;;;;;20.00;11.60;;;;;;;3.42;85.13;101794.20;85817;1319;98190;-64
2021/10/24 02:54:31;;;;;;;17.90;10.20;;;;;;;3.46;85.09;101796.79;85857;1313;87374;-63
2021/10/24 02:56:38;;;;;;;17.30;9.90;;;;;;;3.51;85.13;101797.44;86002;1313;95171;-63
2021/10/24 02:58:46;;;;;;;17.90;10.20;;;;;;;3.51;85.16;101801.03;85876;1314;79414;-65
2021/10/24 03:00:53;;;;;;;16.10;9.70;;;;;;;3.43;84.98;101817.30;85806;1320;83044;-63
2021/10/24 03:03:03;;;;;;;15.60;10.00;;;;;;;3.45;85.21;101827.84;85816;1315;98466;-62
2021/10/24 03:05:12;;;;;;;16.70;9.70;;;;;;;3.45;85.15;101830.88;85843;1313;86973;-62
2021/10/24 03:07:20;;;;;;;16.20;8.90;;;;;;;3.49;85.09;101825.06;85822;1314;93688;-63
2021/10/24 03:09:28;;;;;;;15.90;9.90;;;;;;;3.45;85.13;101826.58;85792;1318;78796;-61
2021/10/24 03:11:36;;;;;;;15.50;10.00;;;;;;;3.41;85.10;101824.54;85837;1319;83227;-62
2021/10/24 03:13:43;;;;;;;15.40;10.10;;;;;;;3.46;85.29;101826.17;85787;1314;98446;-64
2021/10/24 03:15:52;;;;;;;16.10;10.20;;;;;;;3.44;85.15;101831.85;85867;1314;87414;-63
2021/10/24 03:17:59;;;;;;;15.90;10.80;;;;;;;3.42;85.13;101837.80;85817;1313;94445;-63
2021/10/24 03:20:12;;;;;;;19.80;11.70;;;;;;;3.46;85.24;101840.72;85711;1316;79530;-63
2021/10/24 03:22:19;;;;;;;16.90;10.80;;;;;;;3.52;85.09;101838.76;85836;1313;79720;-63
2021/10/24 03:24:27;;;;;;;17.50;10.90;;;;;;;3.58;85.26;101833.68;85813;1314;98250;-63
2021/10/24 03:26:36;;;;;;;17.90;10.90;;;;;;;3.58;85.15;101835.08;85826;1313;88509;-62
2021/10/24 03:28:43;;;;;;;14.90;10.40;;;;;;;3.62;85.24;101836.59;85770;1321;94377;-61
2021/10/24 03:30:50;;;;;;;18.00;11.30;;;;;;;3.61;85.04;101844.85;85766;1315;80442;-63
2021/10/24 03:33:01;;;;;;;21.20;11.30;;;;;;;3.58;85.27;101840.58;85842;1314;81046;-63
2021/10/24 03:35:09;;;;;;;21.40;12.40;;;;;;;3.60;85.14;101845.84;85834;1314;98361;-64
2021/10/24 03:37:16;;;;;;;22.50;12.30;;;;;;;3.66;85.24;101852.89;85654;1317;89355;-65
2021/10/24 03:39:24;;;;;;;22.60;13.00;;;;;;;3.67;85.27;101860.80;85797;1313;94954;-63
2021/10/24 03:41:31;;;;;;;19.90;12.90;;;;;;;3.69;85.15;101859.63;85786;1314;79688;-63
2021/10/24 03:43:39;;;;;;;22.00;12.80;;;;;;;3.71;85.12;101859.79;85824;1313;81864;-64
2021/10/24 03:45:46;;;;;;;24.50;13.60;;;;;;;3.75;85.25;101857.58;85832;1313;97812;-63
2021/10/24 03:47:54;;;;;;;24.20;14.00;;;;;;;3.77;85.17;101860.27;85812;1314;88072;-63
2021/10/24 03:50:05;;;;;;;24.80;14.40;;;;;;;3.74;85.38;101865.30;85838;1317;95572;-61
2021/10/24 03:52:13;;;;;;;27.90;14.00;;;;;;;3.75;85.34;101863.79;85842;1313;79269;-64
2021/10/24 03:54:20;;;;;;;26.90;14.10;;;;;;;3.79;85.44;101877.94;85796;1317;81859;-63
2021/10/24 03:56:28;;;;;;;28.00;14.10;;;;;;;3.86;85.35;101881.67;85815;1320;98125;-63
2021/10/24 03:58:35;;;;;;;26.90;14.60;;;;;;;3.92;85.38;101883.70;85685;1317;86479;-62
2021/10/24 04:00:42;;;;;;;28.40;15.70;;;;;;;3.97;85.29;101879.46;85812;1314;92317;-62
2021/10/24 04:02:58;;;;;;;32.50;17.90;;;;;;;3.96;85.26;101880.94;85771;1309;80587;-62
2021/10/24 04:05:07;;;;;;;28.20;15.40;;;;;;;3.93;85.35;101876.33;85798;1314;81811;-63
2021/10/24 04:07:15;;;;;;;29.80;17.00;;;;;;;3.93;85.35;101879.39;85805;1320;97933;-63
2021/10/24 04:09:22;;;;;;;30.60;17.10;;;;;;;4.00;85.33;101879.75;85777;1313;87710;-65
2021/10/24 04:11:30;;;;;;;27.30;15.10;;;;;;;4.04;85.14;101881.83;85806;1314;94599;-65
2021/10/24 04:13:37;;;;;;;31.60;16.70;;;;;;;4.06;85.31;101883.80;85765;1316;79034;-66
2021/10/24 04:15:45;;;;;;;30.00;16.90;;;;;;;4.04;85.19;101878.77;85782;1317;82652;-64
2021/10/24 04:17:53;;;;;;;33.70;18.10;;;;;;;4.07;85.13;101874.64;85799;1314;97821;-64
2021/10/24 04:20:00;;;;;;;32.90;18.00;;;;;;;4.06;84.93;101868.09;85768;1321;88314;-63
2021/10/24 04:22:08;;;;;;;32.50;17.70;;;;;;;4.05;84.98;101866.36;85814;1319;94230;-63
2021/10/24 04:24:15;;;;;;;32.40;18.10;;;;;;;4.07;85.02;101871.05;85787;1317;78508;-63
2021/10/24 04:26:22;;;;;;;32.90;17.50;;;;;;;4.08;85.07;101864.39;85830;1313;80805;-64
2021/10/24 04:28:30;;;;;;;35.30;19.00;;;;;;;4.06;85.03;101865.59;85653;1317;99696;-66
2021/10/24 04:30:37;;;;;;;33.30;19.60;;;;;;;4.07;84.98;101874.77;85835;1320;86954;-65
2021/10/24 04:32:45;;;;;;;34.80;19.10;;;;;;;4.05;84.89;101873.55;85853;1314;94647;-65
2021/10/24 04:34:53;;;;;;;31.90;18.60;;;;;;;4.08;85.16;101878.27;85840;1313;80174;-65
2021/10/24 04:37:00;;;;;;;32.40;17.90;;;;;;;4.09;85.06;101880.91;85741;1320;83046;-65
2021/10/24 04:39:08;;;;;;;35.40;18.60;;;;;;;4.09;84.97;101881.23;85822;1318;97791;-64
2021/10/24 04:41:16;;;;;;;38.10;19.20;;;;;;;4.09;85.07;101877.14;85832;1317;86661;-63
2021/10/24 04:43:24;;;;;;;39.10;20.20;;;;;;;4.12;84.97;101879.24;85805;1313;95381;-61
2021/10/24 04:45:34;;;;;;;30.40;19.10;;;;;;;4.14;84.97;101881.59;85710;1312;79956;-62
2021/10/24 04:47:42;;;;;;;35.20;19.50;;;;;;;4.12;85.07;101886.20;85825;1317;82425;-63
2021/10/24 04:49:50;;;;;;;32.80;18.70;;;;;;;4.09;84.97;101889.05;85822;1316;98694;-62
2021/10/24 04:51:58;;;;;;;35.20;18.10;;;;;;;4.09;85.01;101890.36;85820;1314;87975;-63
2021/10/24 04:54:06;;;;;;;33.30;18.50;;;;;;;4.08;85.19;101890.89;85636;1314;203779;-64
2021/10/24 04:56:14;;;;;;;37.20;18.70;;;;;;;4.09;85.06;101894.92;85842;1314;80412;-63
2021/10/24 04:58:21;;;;;;;30.70;17.10;;;;;;;4.10;85.07;101898.65;85818;1317;83233;-62
2021/10/24 05:00:29;;;;;;;32.10;18.00;;;;;;;4.12;84.91;101902.90;85846;1319;96899;-62
2021/10/24 05:02:37;;;;;;;30.90;18.10;;;;;;;4.15;85.03;101903.91;85822;1313;87063;-62
2021/10/24 05:04:48;;;;;;;31.40;17.30;;;;;;;4.19;84.94;101904.77;85800;1316;93079;-63
2021/10/24 05:06:55;;;;;;;33.40;19.10;;;;;;;4.13;85.00;101906.40;85732;1317;79825;-63
2021/10/24 05:09:07;;;;;;;28.40;16.60;;;;;;;4.10;84.96;101912.73;85801;1317;82894;-64
2021/10/24 05:11:14;;;;;;;26.90;16.40;;;;;;;4.12;84.92;101908.25;85785;1313;97307;-65
2021/10/24 05:13:21;;;;;;;28.00;17.70;;;;;;;4.19;84.94;101917.24;85793;1314;87011;-64
2021/10/24 05:15:29;;;;;;;25.50;15.60;;;;;;;4.22;85.02;101916.53;85823;1313;95038;-62
2021/10/24 05:17:40;;;;;;;21.80;14.60;;;;;;;4.22;85.01;101916.12;85795;1314;78679;-62
2021/10/24 05:19:47;;;;;;;24.80;15.90;;;;;;;4.21;85.00;101913.17;85678;1317;82625;-65
2021/10/24 05:21:54;;;;;;;22.80;15.60;;;;;;;4.20;84.99;101911.09;85813;1313;98418;-66
2021/10/24 05:24:06;;;;;;;24.00;15.70;;;;;;;4.21;84.89;101912.84;85781;1314;87297;-64
2021/10/24 05:26:13;;;;;;;24.90;15.30;;;;;;;4.22;84.84;101918.84;85800;1320;93662;-62
2021/10/24 05:28:21;;;;;;;24.40;15.90;;;;;;;4.22;84.99;101917.36;85784;1318;78559;-63
2021/10/24 05:30:28;;;;;;;22.20;15.20;;;;;;;4.24;84.95;101913.66;85711;1316;83147;-65
2021/10/24 05:32:38;;;;;;;25.60;15.30;;;;;;;4.24;84.97;101918.48;85787;1313;98599;-65
2021/10/24 05:34:49;;;;;;;21.60;14.40;;;;;;;4.22;84.85;101924.19;85790;1316;89024;-64
2021/10/24 05:36:57;;;;;;;22.40;14.40;;;;;;;4.21;84.89;101924.24;85789;1321;94197;-66
2021/10/24 05:39:04;;;;;;;18.00;13.40;;;;;;;4.23;85.03;101935.16;85803;1313;78419;-65
2021/10/24 05:41:12;;;;;;;21.80;14.20;;;;;;;4.24;84.93;101932.04;85846;1317;82862;-63
2021/10/24 05:43:20;;;;;;;22.90;15.00;;;;;;;4.24;85.03;101933.61;85826;1316;98221;-64
2021/10/24 05:45:28;;;;;;;24.00;14.70;;;;;;;4.23;84.90;101937.13;85792;1313;87968;-62
2021/10/24 05:47:38;;;;;;;25.30;15.80;;;;;;;4.26;85.06;101937.42;85764;1314;95247;-62
2021/10/24 05:49:46;;;;;;;20.50;13.50;;;;;;;4.29;84.91;101942.89;85845;1316;81597;-63
2021/10/24 05:51:53;;;;;;;24.20;15.20;;;;;;;4.29;85.04;101944.89;85832;1313;82315;-64
2021/10/24 05:54:10;;;;;;;20.90;14.00;;;;;;;4.26;84.92;101939.38;85774;1320;97256;-66
2021/10/24 05:56:18;;;;;;;22.70;14.20;;;;;;;4.28;85.05;101938.38;85663;1316;88145;-66
2021/10/24 05:58:28;;;;;;;20.80;14.30;;;;;;;4.29;85.18;101943.25;85767;1313;94319;-64
2021/10/24 06:00:36;;;;;;;22.10;14.30;;;;;;;4.29;85.08;101948.25;85898;1313;81185;-62
2021/10/24 06:02:43;;;;;;;21.30;14.20;;;;;;;4.31;85.07;101955.60;85965;1313;82426;-63
2021/10/24 06:04:51;;;;;;;19.00;12.80;;;;;;;4.27;84.88;101965.73;85903;1319;98567;-63
2021/10/24 06:06:58;;;;;;;20.00;13.20;;;;;;;4.21;85.18;101966.34;85927;1313;87538;-63
2021/10/24 06:09:08;;;;;;;21.50;13.70;;;;;;;4.21;85.29;101972.90;85813;1313;93491;-64
2021/10/24 06:11:20;;;;;;;22.70;13.80;;;;;;;4.20;85.16;101980.29;85819;1314;79475;-62
2021/10/24 06:13:28;;;;;;;20.40;13.10;;;;;;;4.21;85.17;101984.67;85877;1314;82185;-63
2021/10/24 06:15:39;;;;;;;18.10;12.90;;;;;;;4.24;85.11;101984.27;85864;1320;96802;-65
2021/10/24 06:17:49;;;;;;;20.90;12.50;;;;;;;4.27;85.09;101986.39;85787;1317;88183;-65
2021/10/24 06:19:59;;;;;;;20.10;12.80;;;;;;;4.27;85.26;101993.34;85818;1312;94670;-63
2021/10/24 06:22:08;;;;;;;21.00;13.90;;;;;;;4.31;85.19;101995.89;85956;1316;80147;-64
2021/10/24 06:24:15;;;;;;;21.60;13.20;;;;;;;4.38;85.19;101999.69;85846;1306;80284;-63
2021/10/24 06:26:23;;;;;;;18.80;12.30;;;;;;;4.44;85.27;101999.98;85852;1314;97145;-63
2021/10/24 06:28:30;;;;;;;20.20;12.90;;;;;;;4.39;85.25;101999.60;85985;1314;87903;-63
2021/10/24 06:30:38;;;;;;;16.30;11.90;;;;;;;4.38;85.42;102006.11;85786;1317;93439;-65
2021/10/24 06:32:49;;;;;;;20.10;12.20;;;;;;;4.43;85.20;102010.38;85856;1313;78671;-65
2021/10/24 06:35:00;;;;;;;18.20;12.10;;;;;;;4.41;85.15;102011.25;85966;1314;81790;-66
2021/10/24 06:37:08;;;;;;;16.80;11.30;;;;;;;4.43;85.26;102013.41;85982;1313;98056;-65
2021/10/24 06:39:16;;;;;;;17.20;11.00;;;;;;;4.41;85.16;102010.36;85691;1315;87642;-65
2021/10/24 06:41:23;;;;;;;19.30;12.30;;;;;;;4.44;85.21;102013.85;85918;1319;94814;-64
2021/10/24 06:43:33;;;;;;;20.50;12.60;;;;;;;4.51;85.40;102022.98;85844;1315;78943;-65
2021/10/24 06:45:41;;;;;;;17.70;12.80;;;;;;;4.56;85.58;102022.23;85842;1315;81749;-63
2021/10/24 06:47:50;;;;;;;20.90;13.50;;;;;;;4.63;85.38;102023.84;85872;1306;95809;-62
2021/10/24 06:49:58;;;;;;;21.90;14.10;;;;;;;4.66;85.52;102025.94;85941;1313;86706;-64
2021/10/24 06:52:09;;;;;;;21.60;12.40;;;;;;;4.71;85.35;102026.64;85841;1317;94703;-64
2021/10/24 06:54:19;;;;;;;20.00;12.90;;;;;;;4.72;85.36;102027.27;85804;1319;82251;-64
2021/10/24 06:56:26;;;;;;;21.50;12.40;;;;;;;4.69;85.12;102030.58;85897;1318;81427;-63
2021/10/24 06:58:34;;;;;;;19.80;13.00;;;;;;;4.67;85.37;102031.64;85923;1313;98597;-63
2021/10/24 07:00:44;;;;;;;17.80;12.60;;;;;;;4.78;85.36;102032.05;85941;1317;88457;-65
2021/10/24 07:02:52;;;;;;;18.60;12.20;;;;;;;4.82;85.25;102038.02;85933;1312;94340;-65
2021/10/24 07:04:59;;;;;;;20.30;12.00;;;;;;;4.86;85.33;102037.67;85919;1316;79958;-65
2021/10/24 07:07:07;;;;;;;20.60;12.40;;;;;;;4.90;85.12;102042.54;85888;1313;81754;-65
2021/10/24 07:09:15;;;;;;;17.00;11.80;;;;;;;4.92;85.24;102043.48;85914;1319;98384;-64
2021/10/24 07:11:23;;;;;;;19.20;12.80;;;;;;;4.90;85.28;102047.07;85944;1316;88698;-62
2021/10/24 07:13:30;;;;;;;19.40;12.30;;;;;;;4.96;85.29;102049.98;85885;1320;94403;-63
2021/10/24 07:15:37;;;;;;;17.10;11.60;;;;;;;4.94;85.25;102044.76;85936;1317;81822;-64
2021/10/24 07:17:45;;;;;;;18.10;11.20;;;;;;;5.04;85.28;102049.17;85893;1313;82275;-63
2021/10/24 07:19:52;;;;;;;19.40;12.00;;;;;;;5.13;85.13;102058.55;85927;1313;96963;-64
2021/10/24 07:22:03;;;;;;;17.70;12.20;;;;;;;5.19;85.15;102067.71;85915;1313;88976;-64
2021/10/24 07:24:10;;;;;;;19.50;12.60;;;;;;;5.26;85.11;102063.39;85872;1312;94092;-62
2021/10/24 07:26:18;;;;;;;19.90;13.10;;;;;;;5.38;85.05;102062.18;85845;1314;77954;-62
2021/10/24 07:28:26;;;;;;;19.00;12.10;;;;;;;5.52;85.06;102060.73;85867;1320;81770;-62
2021/10/24 07:30:33;;;;;;;17.30;11.20;;;;;;;5.61;84.95;102065.44;85941;1313;99106;-64
2021/10/24 07:32:41;;;;;;;17.80;11.70;;;;;;;5.72;84.90;102067.39;85948;1313;89557;-64
2021/10/24 07:34:48;;;;;;;18.60;12.50;;;;;;;5.79;84.79;102070.77;85865;1316;95042;-61
2021/10/24 07:36:55;;;;;;;16.20;11.70;;;;;;;5.82;84.74;102074.14;85887;1313;78870;-63
2021/10/24 07:39:06;;;;;;;17.40;12.50;;;;;;;5.78;84.59;102076.39;85829;1321;81372;-63
2021/10/24 07:41:14;;;;;;;18.40;12.80;;;;;;;5.84;84.48;102074.90;85815;1316;96971;-64
2021/10/24 07:43:22;;;;;;;18.40;11.60;;;;;;;5.87;84.27;102083.27;85867;1313;88061;-64
2021/10/24 07:45:32;;;;;;;17.70;11.20;;;;;;;5.85;84.20;102089.89;85968;1313;94540;-63
2021/10/24 07:47:40;;;;;;;14.90;10.80;;;;;;;5.86;84.16;102090.81;85870;1313;78286;-62
2021/10/24 07:49:48;;;;;;;15.60;11.70;;;;;;;5.77;83.96;102091.01;85847;1313;80984;-62
2021/10/24 07:51:59;;;;;;;19.10;11.50;;;;;;;5.66;83.92;102090.45;85883;1317;96562;-63
2021/10/24 07:54:07;;;;;;;19.80;11.90;;;;;;;5.61;84.10;102091.14;85905;1313;87488;-63
2021/10/24 07:56:14;;;;;;;19.90;12.70;;;;;;;5.63;84.00;102094.08;85966;1313;94368;-63
2021/10/24 07:58:23;;;;;;;16.30;11.30;;;;;;;5.68;83.79;102087.23;85980;1313;81721;-67
2021/10/24 08:00:31;;;;;;;17.60;12.20;;;;;;;5.68;84.06;102090.79;86006;1313;83729;-66
2021/10/24 08:02:39;;;;;;;15.30;11.50;;;;;;;5.64;83.93;102092.00;85893;1316;99028;-65
2021/10/24 08:04:47;;;;;;;16.70;11.50;;;;;;;5.68;83.98;102094.02;85999;1316;87681;-62
2021/10/24 08:06:55;;;;;;;17.40;12.40;;;;;;;5.67;83.95;102100.52;85977;1313;94624;-65
2021/10/24 08:09:09;;;;;;;16.50;12.20;;;;;;;5.73;83.84;102093.61;85969;1312;81538;-62
2021/10/24 08:11:17;;;;;;;13.80;11.80;;;;;;;5.80;84.03;102101.66;85975;1313;82205;-62
2021/10/24 08:13:28;;;;;;;18.90;12.60;;;;;;;5.85;83.95;102097.89;85963;1313;97851;-63
2021/10/24 08:15:36;;;;;;;18.60;12.00;;;;;;;6.03;84.18;102098.33;85990;1316;88588;-64
2021/10/24 08:17:44;;;;;;;15.90;11.80;;;;;;;6.19;84.06;102092.96;85912;1316;94451;-63
2021/10/24 08:19:54;;;;;;;16.20;11.90;;;;;;;6.12;84.04;102091.90;85833;1316;79851;-65
2021/10/24 08:22:02;;;;;;;14.90;11.30;;;;;;;6.10;83.88;102090.63;85832;1319;82694;-66
2021/10/24 08:24:13;;;;;;;18.40;12.20;;;;;;;6.10;83.52;102097.53;85961;1313;97216;-65
2021/10/24 08:26:24;;;;;;;15.70;11.90;;;;;;;6.09;83.73;102096.05;85842;1320;89188;-64
2021/10/24 08:28:35;;;;;;;16.90;11.90;;;;;;;6.11;83.93;102093.35;85964;1313;94106;-66
2021/10/24 08:30:48;;;;;;;15.60;11.50;;;;;;;6.09;83.81;102095.48;85844;1314;79541;-63
2021/10/24 08:32:56;;;;;;;18.20;11.50;;;;;;;6.08;83.66;102100.29;85968;1314;81152;-63
2021/10/24 08:35:05;;;;;;;16.00;11.30;;;;;;;6.14;83.65;102105.30;85995;1316;99140;-67
2021/10/24 08:37:13;;;;;;;19.90;12.70;;;;;;;6.20;83.69;102105.02;85998;1313;88787;-65
2021/10/24 08:39:24;;;;;;;16.10;11.90;;;;;;;6.31;83.56;102110.42;85825;1316;93842;-64
2021/10/24 08:41:32;;;;;;;15.30;11.40;;;;;;;6.34;83.71;102113.58;85851;1313;78964;-61
2021/10/24 08:43:40;;;;;;;18.40;12.70;;;;;;;6.29;83.48;102111.42;85875;1313;82065;-64
2021/10/24 08:45:50;;;;;;;17.30;11.90;;;;;;;6.37;83.40;102115.61;85893;1313;97745;-66
2021/10/24 08:47:58;;;;;;;16.30;11.80;;;;;;;6.50;83.39;102113.15;85863;1314;88116;-64
2021/10/24 08:50:07;;;;;;;17.60;11.90;;;;;;;6.57;83.31;102116.05;85900;1313;95185;-62
2021/10/24 08:52:16;;;;;;;15.60;11.80;;;;;;;6.72;83.34;102119.14;85974;1313;79653;-61
2021/10/24 08:54:28;;;;;;;16.40;11.80;;;;;;;6.71;82.81;102121.68;85913;1317;80708;-62
2021/10/24 08:56:37;;;;;;;17.80;12.30;;;;;;;6.68;82.77;102121.60;85714;1316;98785;-62
2021/10/24 08:58:45;;;;;;;17.50;12.90;;;;;;;6.68;82.87;102122.46;85708;1316;88965;-62
2021/10/24 09:00:54;;;;;;;16.60;12.50;;;;;;;6.67;82.76;102120.63;85984;1316;95159;-64
2021/10/24 09:03:09;;;;;;;19.80;13.50;;;;;;;6.64;82.46;102117.08;85936;1319;81235;-65
2021/10/24 09:05:31;;;;;;;19.70;14.00;;;;;;;6.70;82.52;102124.97;85971;1313;81836;-65
2021/10/24 09:07:41;;;;;;;20.30;13.60;;;;;;;6.78;82.46;102126.85;85979;1314;96728;-64
2021/10/24 09:09:52;;;;;;;19.40;13.50;;;;;;;6.88;82.47;102131.40;85809;1314;86195;-65
2021/10/24 09:12:05;;;;;;;18.00;13.10;;;;;;;6.92;82.53;102131.77;85937;1312;95553;-65
2021/10/24 09:14:36;;;;;;;20.10;13.10;;;;;;;7.03;82.43;102124.97;85962;1314;79945;-63
2021/10/24 09:16:58;;;;;;;19.40;14.10;;;;;;;7.23;82.14;102124.61;85911;1317;82609;-65
2021/10/24 09:19:20;;;;;;;18.50;13.20;;;;;;;7.48;82.05;102125.33;85736;1322;99090;-65
2021/10/24 09:21:38;;;;;;;16.30;12.00;;;;;;;7.64;81.72;102121.11;85986;1313;87187;-65
2021/10/24 09:23:51;;;;;;;15.30;11.40;;;;;;;7.63;81.17;102118.92;85800;1316;95381;-65
2021/10/24 09:26:00;;;;;;;16.70;13.10;;;;;;;7.62;81.00;102117.95;85990;1313;79787;-62
2021/10/24 09:28:14;;;;;;;19.00;13.40;;;;;;;7.51;80.92;102120.98;85998;1313;82576;-61
2021/10/24 09:30:26;;;;;;;17.20;12.60;;;;;;;7.42;80.89;102129.98;85956;1317;98271;-63
2021/10/24 09:32:52;;;;;;;19.60;14.20;;;;;;;7.25;80.93;102132.50;85982;1313;86988;-63
2021/10/24 09:35:06;;;;;;;19.30;14.20;;;;;;;7.16;80.98;102136.98;85922;1320;95493;-62
2021/10/24 09:37:20;;;;;;;22.00;14.90;;;;;;;7.23;81.03;102139.84;85822;1320;80162;-62
2021/10/24 09:39:33;;;;;;;22.80;15.70;;;;;;;7.26;81.14;102142.10;85865;1319;82745;-64
2021/10/24 09:41:43;;;;;;;20.80;15.40;;;;;;;7.35;81.20;102139.77;85937;1317;98473;-67
2021/10/24 09:43:51;;;;;;;22.70;15.50;;;;;;;7.49;80.87;102142.64;85886;1319;87397;-66
2021/10/24 09:46:16;;;;;;;23.50;15.70;;;;;;;7.50;80.88;102142.73;85929;1316;94592;-63
2021/10/24 09:48:29;;;;;;;23.10;15.40;;;;;;;7.70;80.68;102140.34;85732;1315;79580;-65
2021/10/24 09:50:39;;;;;;;20.40;14.40;;;;;;;7.89;80.86;102142.73;85988;1313;82481;-63
2021/10/24 09:52:47;;;;;;;21.60;15.20;;;;;;;7.87;80.53;102140.77;85985;1314;99041;-63